sensor_id;sensor_type;location;lat;lon;timestamp;P1;durP1;ratioP1;P2;durP2;ratioP2
76069;SDS011;64768;51.738;5.852;2022-10-30T07:45:02;19.30;;;11.07;;
76069;SDS011;64768;51.738;5.852;2022-10-30T07:47:55;17.38;;;11.90;;
76069;SDS011;64768;51.738;5.852;2022-10-30T07:50:23;20.40;;;12.15;;
76069;SDS011;64768;51.738;5.852;2022-10-30T07:56:07;20.88;;;10.18;;
76069;SDS011;64768;51.738;5.852;2022-10-30T07:58:44;22.48;;;11.35;;
76069;SDS011;64768;51.738;5.852;2022-10-30T08:04:18;21.75;;;11.02;;
76069;SDS011;64768;51.738;5.852;2022-10-30T08:35:15;20.00;;;12.18;;
76069;SDS011;64768;51.738;5.852;2022-10-30T08:45:49;20.35;;;12.80;;
76069;SDS011;64768;51.738;5.852;2022-10-30T08:48:15;21.73;;;12.50;;
76069;SDS011;64768;51.738;5.852;2022-10-30T08:50:40;16.90;;;11.32;;
76069;SDS011;64768;51.738;5.852;2022-10-30T08:53:07;21.73;;;12.25;;
76069;SDS011;64768;51.738;5.852;2022-10-30T08:55:35;23.23;;;12.73;;
76069;SDS011;64768;51.738;5.852;2022-10-30T08:58:00;21.13;;;12.82;;
76069;SDS011;64768;51.738;5.852;2022-10-30T09:00:26;21.52;;;13.95;;
76069;SDS011;64768;51.738;5.852;2022-10-30T09:02:52;21.10;;;14.63;;
76069;SDS011;64768;51.738;5.852;2022-10-30T09:05:17;24.33;;;14.23;;
76069;SDS011;64768;51.738;5.852;2022-10-30T09:07:44;21.88;;;13.35;;
76069;SDS011;64768;51.738;5.852;2022-10-30T09:10:09;19.63;;;13.70;;
76069;SDS011;64768;51.738;5.852;2022-10-30T09:12:35;20.30;;;13.38;;
76069;SDS011;64768;51.738;5.852;2022-10-30T09:15:03;27.85;;;14.18;;
76069;SDS011;64768;51.738;5.852;2022-10-30T09:17:33;20.67;;;12.18;;
76069;SDS011;64768;51.738;5.852;2022-10-30T09:19:59;22.48;;;14.05;;
76069;SDS011;64768;51.738;5.852;2022-10-30T09:22:27;20.35;;;12.48;;
76069;SDS011;64768;51.738;5.852;2022-10-30T09:24:53;21.95;;;14.25;;
76069;SDS011;64768;51.738;5.852;2022-10-30T09:27:19;20.35;;;12.70;;
76069;SDS011;64768;51.738;5.852;2022-10-30T09:29:44;19.95;;;13.00;;
76069;SDS011;64768;51.738;5.852;2022-10-30T09:32:12;19.00;;;11.82;;
76069;SDS011;64768;51.738;5.852;2022-10-30T09:34:37;22.15;;;12.95;;
76069;SDS011;64768;51.738;5.852;2022-10-30T09:37:05;22.60;;;12.40;;
76069;SDS011;64768;51.738;5.852;2022-10-30T14:31:57;19.60;;;9.75;;
76069;SDS011;64768;51.738;5.852;2022-10-30T14:37:14;19.60;;;10.40;;
76069;SDS011;64768;51.738;5.852;2022-10-30T14:39:44;19.80;;;10.07;;
76069;SDS011;64768;51.738;5.852;2022-10-30T14:48:24;20.88;;;10.93;;
76069;SDS011;64768;51.738;5.852;2022-10-30T14:56:48;21.95;;;11.60;;
76069;SDS011;64768;51.738;5.852;2022-10-30T14:59:19;24.95;;;11.88;;
76069;SDS011;64768;51.738;5.852;2022-10-30T15:12:48;21.08;;;10.43;;
76069;SDS011;64768;51.738;5.852;2022-10-30T15:15:18;16.80;;;9.25;;
76069;SDS011;64768;51.738;5.852;2022-10-30T15:17:45;23.88;;;10.90;;
76069;SDS011;64768;51.738;5.852;2022-10-30T15:22:40;20.65;;;9.77;;
76069;SDS011;64768;51.738;5.852;2022-10-30T15:25:14;19.65;;;9.75;;
76069;SDS011;64768;51.738;5.852;2022-10-30T15:27:44;18.88;;;10.18;;
76069;SDS011;64768;51.738;5.852;2022-10-30T15:30:16;23.27;;;10.57;;
76069;SDS011;64768;51.738;5.852;2022-10-30T15:32:44;20.02;;;9.63;;
76069;SDS011;64768;51.738;5.852;2022-10-30T15:35:14;18.65;;;9.65;;
76069;SDS011;64768;51.738;5.852;2022-10-30T16:09:24;15.18;;;7.03;;
76069;SDS011;64768;51.738;5.852;2022-10-30T16:11:51;14.15;;;6.82;;
76069;SDS011;64768;51.738;5.852;2022-10-30T16:17:46;16.17;;;6.25;;
76069;SDS011;64768;51.738;5.852;2022-10-30T16:20:11;13.77;;;6.50;;
76069;SDS011;64768;51.738;5.852;2022-10-30T16:22:43;10.20;;;6.18;;
76069;SDS011;64768;51.738;5.852;2022-10-30T16:25:13;12.50;;;5.82;;
76069;SDS011;64768;51.738;5.852;2022-10-30T16:27:41;10.38;;;5.47;;
76069;SDS011;64768;51.738;5.852;2022-10-30T16:30:10;11.85;;;5.10;;
76069;SDS011;64768;51.738;5.852;2022-10-30T16:32:38;13.35;;;5.63;;
76069;SDS011;64768;51.738;5.852;2022-10-30T16:35:05;14.93;;;5.05;;
76069;SDS011;64768;51.738;5.852;2022-10-30T16:37:32;8.68;;;4.70;;
76069;SDS011;64768;51.738;5.852;2022-10-30T16:40:17;10.73;;;5.30;;
76069;SDS011;64768;51.738;5.852;2022-10-30T16:49:57;13.98;;;5.60;;
76069;SDS011;64768;51.738;5.852;2022-10-30T16:52:28;13.73;;;5.40;;
76069;SDS011;64768;51.738;5.852;2022-10-30T16:55:00;9.63;;;4.80;;
76069;SDS011;64768;51.738;5.852;2022-10-30T16:57:36;12.00;;;4.78;;
76069;SDS011;64768;51.738;5.852;2022-10-30T17:00:16;6.15;;;2.88;;
76069;SDS011;64768;51.738;5.852;2022-10-30T17:02:46;9.75;;;3.67;;
76069;SDS011;64768;51.738;5.852;2022-10-30T17:08:47;9.13;;;4.70;;
76069;SDS011;64768;51.738;5.852;2022-10-30T17:13:55;15.75;;;7.30;;
76069;SDS011;64768;51.738;5.852;2022-10-30T17:16:24;15.23;;;6.22;;
76069;SDS011;64768;51.738;5.852;2022-10-30T17:18:50;9.15;;;5.05;;
76069;SDS011;64768;51.738;5.852;2022-10-30T17:35:39;9.95;;;5.38;;
76069;SDS011;64768;51.738;5.852;2022-10-30T17:38:06;10.48;;;4.88;;
76069;SDS011;64768;51.738;5.852;2022-10-30T17:40:33;8.02;;;4.00;;
76069;SDS011;64768;51.738;5.852;2022-10-30T17:42:59;7.93;;;3.10;;
76069;SDS011;64768;51.738;5.852;2022-10-30T18:04:07;9.77;;;3.40;;
76069;SDS011;64768;51.738;5.852;2022-10-30T18:06:39;7.40;;;2.97;;
76069;SDS011;64768;51.738;5.852;2022-10-30T18:09:09;6.45;;;3.20;;
76069;SDS011;64768;51.738;5.852;2022-10-30T18:11:39;7.13;;;2.53;;
76069;SDS011;64768;51.738;5.852;2022-10-30T18:14:09;7.50;;;3.10;;
76069;SDS011;64768;51.738;5.852;2022-10-30T18:16:38;9.30;;;3.55;;
76069;SDS011;64768;51.738;5.852;2022-10-30T18:19:10;9.68;;;3.08;;
76069;SDS011;64768;51.738;5.852;2022-10-30T18:21:39;8.38;;;3.08;;
76069;SDS011;64768;51.738;5.852;2022-10-30T18:24:10;7.28;;;3.47;;
76069;SDS011;64768;51.738;5.852;2022-10-30T18:26:40;13.32;;;3.20;;
76069;SDS011;64768;51.738;5.852;2022-10-30T18:29:09;7.22;;;3.13;;
76069;SDS011;64768;51.738;5.852;2022-10-30T18:31:38;8.63;;;3.55;;
76069;SDS011;64768;51.738;5.852;2022-10-30T18:35:24;11.30;;;3.42;;
76069;SDS011;64768;51.738;5.852;2022-10-30T18:37:56;10.93;;;4.05;;
76069;SDS011;64768;51.738;5.852;2022-10-30T18:40:25;7.70;;;3.10;;
76069;SDS011;64768;51.738;5.852;2022-10-30T18:45:24;6.45;;;2.92;;
76069;SDS011;64768;51.738;5.852;2022-10-30T18:47:54;9.55;;;4.07;;
76069;SDS011;64768;51.738;5.852;2022-10-30T18:50:27;9.05;;;4.22;;
76069;SDS011;64768;51.738;5.852;2022-10-30T18:52:57;6.30;;;3.35;;
76069;SDS011;64768;51.738;5.852;2022-10-30T18:55:30;8.23;;;3.83;;
76069;SDS011;64768;51.738;5.852;2022-10-30T18:58:00;12.48;;;4.07;;
76069;SDS011;64768;51.738;5.852;2022-10-30T19:00:29;9.27;;;4.28;;
76069;SDS011;64768;51.738;5.852;2022-10-30T19:03:00;9.07;;;3.70;;
76069;SDS011;64768;51.738;5.852;2022-10-30T19:05:32;9.45;;;3.55;;
76069;SDS011;64768;51.738;5.852;2022-10-30T19:10:34;7.25;;;3.53;;
76069;SDS011;64768;51.738;5.852;2022-10-30T19:13:09;8.80;;;3.90;;
76069;SDS011;64768;51.738;5.852;2022-10-30T19:15:40;8.07;;;3.75;;
76069;SDS011;64768;51.738;5.852;2022-10-30T19:18:11;10.43;;;3.88;;
76069;SDS011;64768;51.738;5.852;2022-10-30T19:20:42;14.15;;;4.15;;
76069;SDS011;64768;51.738;5.852;2022-10-30T19:23:12;9.93;;;3.47;;
76069;SDS011;64768;51.738;5.852;2022-10-30T19:25:42;6.82;;;3.80;;
76069;SDS011;64768;51.738;5.852;2022-10-30T19:28:13;9.35;;;4.80;;
76069;SDS011;64768;51.738;5.852;2022-10-30T19:30:43;7.43;;;4.10;;
76069;SDS011;64768;51.738;5.852;2022-10-30T19:33:14;10.45;;;4.57;;
76069;SDS011;64768;51.738;5.852;2022-10-30T19:35:47;10.85;;;4.38;;
76069;SDS011;64768;51.738;5.852;2022-10-30T19:38:21;9.10;;;4.13;;
76069;SDS011;64768;51.738;5.852;2022-10-30T19:40:50;12.43;;;4.78;;
76069;SDS011;64768;51.738;5.852;2022-10-30T19:43:19;12.73;;;5.13;;
76069;SDS011;64768;51.738;5.852;2022-10-30T19:45:48;10.88;;;4.40;;
76069;SDS011;64768;51.738;5.852;2022-10-30T19:48:21;7.95;;;4.80;;
76069;SDS011;64768;51.738;5.852;2022-10-30T19:50:52;11.85;;;4.07;;
76069;SDS011;64768;51.738;5.852;2022-10-30T19:53:22;12.27;;;5.13;;
76069;SDS011;64768;51.738;5.852;2022-10-30T19:55:54;12.73;;;4.80;;
76069;SDS011;64768;51.738;5.852;2022-10-30T19:58:23;9.93;;;4.40;;
76069;SDS011;64768;51.738;5.852;2022-10-30T20:00:52;7.63;;;4.78;;
76069;SDS011;64768;51.738;5.852;2022-10-30T20:03:21;11.57;;;5.18;;
76069;SDS011;64768;51.738;5.852;2022-10-30T20:05:52;11.18;;;5.20;;
76069;SDS011;64768;51.738;5.852;2022-10-30T20:08:21;12.80;;;5.35;;
76069;SDS011;64768;51.738;5.852;2022-10-30T20:10:53;11.02;;;5.25;;
76069;SDS011;64768;51.738;5.852;2022-10-30T20:13:24;10.60;;;5.00;;
76069;SDS011;64768;51.738;5.852;2022-10-30T20:15:54;11.77;;;5.57;;
76069;SDS011;64768;51.738;5.852;2022-10-30T20:18:27;8.98;;;4.95;;
76069;SDS011;64768;51.738;5.852;2022-10-30T20:21:00;15.27;;;6.55;;
76069;SDS011;64768;51.738;5.852;2022-10-30T20:23:32;11.07;;;5.55;;
76069;SDS011;64768;51.738;5.852;2022-10-30T20:26:01;8.30;;;4.32;;
76069;SDS011;64768;51.738;5.852;2022-10-30T20:28:33;8.63;;;4.85;;
76069;SDS011;64768;51.738;5.852;2022-10-30T20:31:03;8.18;;;5.20;;
76069;SDS011;64768;51.738;5.852;2022-10-30T20:33:33;9.32;;;5.22;;
76069;SDS011;64768;51.738;5.852;2022-10-30T20:36:04;15.75;;;6.43;;
76069;SDS011;64768;51.738;5.852;2022-10-30T20:38:34;11.50;;;5.38;;
76069;SDS011;64768;51.738;5.852;2022-10-30T20:41:04;12.27;;;6.20;;
76069;SDS011;64768;51.738;5.852;2022-10-30T20:43:35;14.07;;;6.85;;
76069;SDS011;64768;51.738;5.852;2022-10-30T20:46:06;16.02;;;6.55;;
76069;SDS011;64768;51.738;5.852;2022-10-30T20:48:36;12.55;;;6.32;;
76069;SDS011;64768;51.738;5.852;2022-10-30T20:51:08;8.70;;;5.65;;
76069;SDS011;64768;51.738;5.852;2022-10-30T20:53:38;10.30;;;5.30;;
76069;SDS011;64768;51.738;5.852;2022-10-30T20:56:06;13.75;;;6.45;;
76069;SDS011;64768;51.738;5.852;2022-10-30T20:58:35;11.55;;;5.45;;
76069;SDS011;64768;51.738;5.852;2022-10-30T21:01:04;11.13;;;5.72;;
76069;SDS011;64768;51.738;5.852;2022-10-30T21:03:33;13.32;;;6.65;;
76069;SDS011;64768;51.738;5.852;2022-10-30T21:06:01;12.57;;;6.15;;
76069;SDS011;64768;51.738;5.852;2022-10-30T21:08:36;13.20;;;5.85;;
76069;SDS011;64768;51.738;5.852;2022-10-30T21:11:05;8.68;;;5.07;;
76069;SDS011;64768;51.738;5.852;2022-10-30T21:13:35;10.43;;;5.97;;
76069;SDS011;64768;51.738;5.852;2022-10-30T21:16:05;14.65;;;6.53;;
76069;SDS011;64768;51.738;5.852;2022-10-30T21:18:38;14.40;;;6.70;;
76069;SDS011;64768;51.738;5.852;2022-10-30T21:23:38;10.27;;;5.82;;
76069;SDS011;64768;51.738;5.852;2022-10-30T21:26:12;13.35;;;6.88;;
76069;SDS011;64768;51.738;5.852;2022-10-30T21:28:41;14.98;;;6.30;;
76069;SDS011;64768;51.738;5.852;2022-10-30T21:31:10;12.32;;;5.85;;
76069;SDS011;64768;51.738;5.852;2022-10-30T21:33:40;12.60;;;6.53;;
76069;SDS011;64768;51.738;5.852;2022-10-30T21:36:09;13.25;;;7.45;;
76069;SDS011;64768;51.738;5.852;2022-10-30T21:38:42;8.48;;;5.70;;
76069;SDS011;64768;51.738;5.852;2022-10-30T21:41:13;14.60;;;6.63;;
76069;SDS011;64768;51.738;5.852;2022-10-30T21:43:49;11.40;;;6.07;;
76069;SDS011;64768;51.738;5.852;2022-10-30T21:46:22;11.85;;;6.22;;
76069;SDS011;64768;51.738;5.852;2022-10-30T21:48:56;13.18;;;7.05;;
76069;SDS011;64768;51.738;5.852;2022-10-30T21:51:30;11.50;;;6.38;;
76069;SDS011;64768;51.738;5.852;2022-10-30T21:56:30;12.65;;;6.80;;
76069;SDS011;64768;51.738;5.852;2022-10-30T21:58:59;11.90;;;6.47;;
76069;SDS011;64768;51.738;5.852;2022-10-30T22:01:29;12.15;;;6.70;;
76069;SDS011;64768;51.738;5.852;2022-10-30T22:03:59;14.05;;;7.05;;
76069;SDS011;64768;51.738;5.852;2022-10-30T22:06:29;12.30;;;7.10;;
76069;SDS011;64768;51.738;5.852;2022-10-30T22:08:58;13.27;;;6.40;;
76069;SDS011;64768;51.738;5.852;2022-10-30T22:11:30;15.27;;;8.00;;
76069;SDS011;64768;51.738;5.852;2022-10-30T22:13:59;13.02;;;6.45;;
76069;SDS011;64768;51.738;5.852;2022-10-30T22:16:30;13.75;;;7.35;;
76069;SDS011;64768;51.738;5.852;2022-10-30T22:19:00;14.40;;;7.30;;
76069;SDS011;64768;51.738;5.852;2022-10-30T22:23:57;14.25;;;7.15;;
76069;SDS011;64768;51.738;5.852;2022-10-30T22:26:26;13.77;;;7.05;;
76069;SDS011;64768;51.738;5.852;2022-10-30T22:28:59;10.18;;;5.53;;
76069;SDS011;64768;51.738;5.852;2022-10-30T22:33:57;13.38;;;6.53;;
76069;SDS011;64768;51.738;5.852;2022-10-30T22:36:27;12.68;;;7.40;;
76069;SDS011;64768;51.738;5.852;2022-10-30T22:38:57;16.40;;;7.35;;
76069;SDS011;64768;51.738;5.852;2022-10-30T22:41:30;11.68;;;6.97;;
76069;SDS011;64768;51.738;5.852;2022-10-30T22:43:59;14.98;;;6.63;;
76069;SDS011;64768;51.738;5.852;2022-10-30T22:46:28;13.27;;;6.95;;
76069;SDS011;64768;51.738;5.852;2022-10-30T22:48:58;13.18;;;7.05;;
76069;SDS011;64768;51.738;5.852;2022-10-30T22:51:27;14.30;;;7.20;;
76069;SDS011;64768;51.738;5.852;2022-10-30T22:54:00;13.50;;;7.78;;
76069;SDS011;64768;51.738;5.852;2022-10-30T22:56:33;15.38;;;8.13;;
76069;SDS011;64768;51.738;5.852;2022-10-30T22:59:04;15.05;;;8.20;;
76069;SDS011;64768;51.738;5.852;2022-10-30T23:01:34;15.93;;;7.55;;
76069;SDS011;64768;51.738;5.852;2022-10-30T23:04:04;14.77;;;7.55;;
76069;SDS011;64768;51.738;5.852;2022-10-30T23:06:34;13.27;;;7.05;;
76069;SDS011;64768;51.738;5.852;2022-10-30T23:09:13;14.60;;;7.40;;
76069;SDS011;64768;51.738;5.852;2022-10-30T23:11:46;16.48;;;8.07;;
76069;SDS011;64768;51.738;5.852;2022-10-30T23:14:15;13.88;;;7.90;;
76069;SDS011;64768;51.738;5.852;2022-10-30T23:16:43;12.93;;;7.13;;
76069;SDS011;64768;51.738;5.852;2022-10-30T23:19:12;15.18;;;7.97;;
76069;SDS011;64768;51.738;5.852;2022-10-30T23:21:41;14.43;;;8.35;;
76069;SDS011;64768;51.738;5.852;2022-10-30T23:24:10;16.98;;;8.50;;
76069;SDS011;64768;51.738;5.852;2022-10-30T23:26:38;12.05;;;7.38;;
76069;SDS011;64768;51.738;5.852;2022-10-30T23:29:09;13.48;;;6.88;;
76069;SDS011;64768;51.738;5.852;2022-10-30T23:31:39;17.23;;;6.25;;
76069;SDS011;64768;51.738;5.852;2022-10-30T23:34:09;15.85;;;9.18;;
76069;SDS011;64768;51.738;5.852;2022-10-30T23:36:39;15.50;;;8.85;;
76069;SDS011;64768;51.738;5.852;2022-10-30T23:39:09;16.25;;;8.90;;
76069;SDS011;64768;51.738;5.852;2022-10-30T23:41:41;18.50;;;9.02;;
76069;SDS011;64768;51.738;5.852;2022-10-30T23:44:13;17.45;;;8.77;;
76069;SDS011;64768;51.738;5.852;2022-10-30T23:46:42;15.38;;;8.70;;
76069;SDS011;64768;51.738;5.852;2022-10-30T23:49:11;15.00;;;8.68;;
76069;SDS011;64768;51.738;5.852;2022-10-30T23:51:40;18.23;;;8.73;;
76069;SDS011;64768;51.738;5.852;2022-10-30T23:54:08;17.85;;;8.40;;
76069;SDS011;64768;51.738;5.852;2022-10-30T23:56:37;16.15;;;8.88;;
76069;SDS011;64768;51.738;5.852;2022-10-30T23:59:07;14.98;;;8.90;;
